createdAt,value
2023-03-06T00:00:00.859Z,9.34
2023-03-06T00:02:13.990Z,9.32
2023-03-06T00:04:27.248Z,9.33
2023-03-06T00:06:40.396Z,9.31
2023-03-06T00:08:53.582Z,9.26
2023-03-06T00:11:06.536Z,9.23
2023-03-06T00:13:21.128Z,9.20
2023-03-06T00:15:35.513Z,9.18
2023-03-06T00:17:48.311Z,9.13
2023-03-06T00:20:02.248Z,9.07
2023-03-06T00:22:19.098Z,9.06
2023-03-06T00:24:32.143Z,9.05
2023-03-06T00:26:48.960Z,9.01
2023-03-06T00:29:02.040Z,8.91
2023-03-06T00:31:15.001Z,8.83
2023-03-06T00:33:27.829Z,8.78
2023-03-06T00:35:41.558Z,8.78
2023-03-06T00:37:54.753Z,8.75
2023-03-06T00:40:13.389Z,8.70
2023-03-06T00:42:26.391Z,8.66
2023-03-06T00:44:39.309Z,8.63
2023-03-06T00:46:52.433Z,8.59
2023-03-06T00:49:05.750Z,8.53
2023-03-06T00:51:21.006Z,8.46
2023-03-06T00:53:34.219Z,8.36
2023-03-06T00:55:49.898Z,8.27
2023-03-06T00:58:03.056Z,8.20
2023-03-06T01:00:18.882Z,8.12
2023-03-06T01:02:32.077Z,8.03
2023-03-06T01:04:46.108Z,7.95
2023-03-06T01:06:59.254Z,7.84
2023-03-06T01:09:12.959Z,7.74
2023-03-06T01:11:26.374Z,7.67
2023-03-06T01:13:40.613Z,7.61
2023-03-06T01:15:53.813Z,7.52
2023-03-06T01:18:07.783Z,7.43
2023-03-06T01:20:24.010Z,7.35
2023-03-06T01:22:37.917Z,7.30
2023-03-06T01:24:52.292Z,7.27
2023-03-06T01:27:07.436Z,7.22
2023-03-06T01:29:20.808Z,7.17
2023-03-06T01:31:34.058Z,7.13
2023-03-06T01:33:46.854Z,7.09
2023-03-06T01:35:59.841Z,7.04
2023-03-06T01:38:13.060Z,6.99
2023-03-06T01:40:27.118Z,6.93
2023-03-06T01:42:40.225Z,6.89
2023-03-06T01:45:31.776Z,6.83
2023-03-06T01:47:46.045Z,6.74
2023-03-06T01:50:00.420Z,6.68
2023-03-06T01:52:18.867Z,6.64
2023-03-06T01:54:36.478Z,6.61
2023-03-06T01:56:52.407Z,6.57
2023-03-06T01:59:06.188Z,6.51
2023-03-06T02:01:21.269Z,6.46
2023-03-06T02:03:35.583Z,6.45
2023-03-06T02:05:52.141Z,6.44
2023-03-06T02:08:06.169Z,6.42
2023-03-06T02:10:20.348Z,6.40
2023-03-06T02:12:33.579Z,6.37
2023-03-06T02:14:47.552Z,6.36
2023-03-06T02:17:00.648Z,6.35
2023-03-06T02:19:23.289Z,6.33
2023-03-06T02:21:39.611Z,6.28
2023-03-06T02:24:05.168Z,6.23
2023-03-06T02:26:18.970Z,6.16
2023-03-06T02:28:31.930Z,6.07
2023-03-06T02:30:46.648Z,5.96
2023-03-06T02:33:00.855Z,5.89
2023-03-06T02:35:26.444Z,5.79
2023-03-06T02:37:39.821Z,5.68
2023-03-06T02:39:56.631Z,5.60
2023-03-06T02:42:09.756Z,5.52
2023-03-06T02:44:22.754Z,5.44
2023-03-06T02:46:36.546Z,5.36
2023-03-06T02:48:49.779Z,5.29
2023-03-06T02:51:03.007Z,5.24
2023-03-06T02:53:17.891Z,5.18
2023-03-06T02:55:31.008Z,5.12
2023-03-06T02:57:43.865Z,5.05
2023-03-06T02:59:56.834Z,5.00
2023-03-06T03:02:10.714Z,4.98
2023-03-06T03:04:23.617Z,4.95
2023-03-06T03:06:37.137Z,4.92
2023-03-06T03:08:50.373Z,4.88
2023-03-06T03:11:04.154Z,4.87
2023-03-06T03:13:23.984Z,4.89
2023-03-06T03:15:37.379Z,4.91
2023-03-06T03:17:50.577Z,4.94
2023-03-06T03:20:04.335Z,4.98
2023-03-06T03:22:18.217Z,5.00
2023-03-06T03:24:31.045Z,5.03
2023-03-06T03:26:44.598Z,5.02
2023-03-06T03:29:05.863Z,5.00
2023-03-06T03:31:19.221Z,4.96
2023-03-06T03:33:32.642Z,4.93
2023-03-06T03:35:46.054Z,4.91
2023-03-06T03:37:58.988Z,4.91
2023-03-06T03:40:14.477Z,4.91
2023-03-06T03:42:27.829Z,4.91
2023-03-06T03:44:40.916Z,4.92
2023-03-06T03:46:55.146Z,4.91
2023-03-06T03:49:09.631Z,4.88
2023-03-06T03:51:23.412Z,4.89
2023-03-06T03:53:39.022Z,4.88
2023-03-06T03:55:52.141Z,4.87
2023-03-06T03:58:05.832Z,4.85
2023-03-06T04:00:21.447Z,4.83
2023-03-06T04:02:54.636Z,4.80
2023-03-06T04:05:18.826Z,4.77
2023-03-06T04:07:32.826Z,4.75
2023-03-06T04:09:46.304Z,4.74
2023-03-06T04:11:59.387Z,4.74
2023-03-06T04:14:13.326Z,4.77
2023-03-06T04:16:26.687Z,4.78
2023-03-06T04:18:39.864Z,4.78
2023-03-06T04:20:54.113Z,4.77
2023-03-06T04:23:07.811Z,4.75
2023-03-06T04:25:24.934Z,4.72
2023-03-06T04:27:37.818Z,4.70
2023-03-06T04:29:51.266Z,4.67
2023-03-06T04:32:04.388Z,4.65
2023-03-06T04:34:17.579Z,4.63
2023-03-06T04:36:36.102Z,4.62
2023-03-06T04:38:55.000Z,4.60
2023-03-06T04:41:08.971Z,4.58
2023-03-06T04:43:23.289Z,4.58
2023-03-06T04:45:38.142Z,4.57
2023-03-06T04:47:51.020Z,4.56
2023-03-06T04:50:04.070Z,4.57
2023-03-06T04:52:17.465Z,4.55
2023-03-06T04:54:30.269Z,4.54
2023-03-06T04:56:43.247Z,4.51
2023-03-06T04:58:56.533Z,4.46
2023-03-06T05:01:09.807Z,4.41
2023-03-06T05:03:23.338Z,4.38
2023-03-06T05:05:36.247Z,4.35
2023-03-06T05:07:49.890Z,4.30
2023-03-06T05:10:03.514Z,4.28
2023-03-06T05:12:16.792Z,4.25
2023-03-06T05:14:32.251Z,4.23
2023-03-06T05:16:45.648Z,4.22
2023-03-06T05:18:58.970Z,4.24
2023-03-06T05:21:12.657Z,4.26
2023-03-06T05:23:26.143Z,4.28
2023-03-06T05:25:38.813Z,4.30
2023-03-06T05:27:51.782Z,4.30
2023-03-06T05:30:05.110Z,4.30
2023-03-06T05:32:21.580Z,4.30
2023-03-06T05:34:35.173Z,4.30
2023-03-06T05:36:48.785Z,4.29
2023-03-06T05:39:02.180Z,4.31
2023-03-06T05:41:17.610Z,4.34
2023-03-06T05:43:30.584Z,4.36
2023-03-06T05:45:44.036Z,4.37
2023-03-06T05:47:57.259Z,4.38
2023-03-06T05:50:11.638Z,4.40
2023-03-06T05:52:24.530Z,4.40
2023-03-06T05:54:38.686Z,4.42
2023-03-06T05:56:52.259Z,4.44
2023-03-06T05:59:05.257Z,4.46
2023-03-06T06:01:19.702Z,4.47
2023-03-06T06:03:32.729Z,4.48
2023-03-06T06:05:47.281Z,4.48
2023-03-06T06:08:00.006Z,4.47
2023-03-06T06:10:15.483Z,4.47
2023-03-06T06:12:28.554Z,4.47
2023-03-06T06:14:41.603Z,4.46
2023-03-06T06:16:55.295Z,4.46
2023-03-06T06:19:08.563Z,4.46
2023-03-06T06:21:21.742Z,4.47
2023-03-06T06:23:34.617Z,4.48
2023-03-06T06:25:47.845Z,4.51
2023-03-06T06:28:02.595Z,4.50
2023-03-06T06:30:17.397Z,4.51
2023-03-06T06:32:30.586Z,4.51
2023-03-06T06:34:43.476Z,4.51
2023-03-06T06:36:57.505Z,4.53
2023-03-06T06:39:11.185Z,4.56
2023-03-06T06:41:42.610Z,4.58
2023-03-06T06:43:59.137Z,4.60
2023-03-06T06:46:47.142Z,4.61
2023-03-06T06:48:42.765Z,4.61
2023-03-06T06:51:01.118Z,4.62
2023-03-06T06:53:14.587Z,4.63
2023-03-06T06:55:28.454Z,4.65
2023-03-06T06:57:41.608Z,4.66
2023-03-06T06:59:54.713Z,4.67
2023-03-06T07:02:07.545Z,4.69
2023-03-06T07:04:20.734Z,4.70
2023-03-06T07:06:34.396Z,4.70
2023-03-06T07:08:47.325Z,4.69
2023-03-06T07:11:03.536Z,4.69
2023-03-06T07:13:16.506Z,4.69
2023-03-06T07:15:31.890Z,4.69
2023-03-06T07:17:44.791Z,4.69
2023-03-06T07:19:57.816Z,4.68
2023-03-06T07:22:10.885Z,4.68
2023-03-06T07:24:23.876Z,4.67
2023-03-06T07:26:36.843Z,4.67
2023-03-06T07:28:54.040Z,4.66
2023-03-06T07:31:10.932Z,4.65
2023-03-06T07:33:24.541Z,4.66
2023-03-06T07:35:37.512Z,4.66
2023-03-06T07:37:50.578Z,4.66
2023-03-06T07:40:03.657Z,4.66
2023-03-06T07:42:17.549Z,4.66
2023-03-06T07:44:39.257Z,4.64
2023-03-06T07:46:52.040Z,4.61
2023-03-06T07:49:05.102Z,4.60
2023-03-06T07:51:22.729Z,4.57
2023-03-06T07:53:36.890Z,4.56
2023-03-06T07:55:50.732Z,4.53
2023-03-06T07:58:04.023Z,4.51
2023-03-06T08:00:19.500Z,4.51
2023-03-06T08:02:32.605Z,4.49
2023-03-06T08:04:45.707Z,4.49
2023-03-06T08:07:00.702Z,4.51
2023-03-06T08:09:14.164Z,4.54
2023-03-06T08:11:28.893Z,4.56
2023-03-06T08:13:43.421Z,4.56
2023-03-06T08:15:57.852Z,4.58
2023-03-06T08:18:11.008Z,4.60
2023-03-06T08:20:25.773Z,4.59
2023-03-06T08:22:40.260Z,4.59
2023-03-06T08:24:57.550Z,4.59
2023-03-06T08:27:11.216Z,4.56
2023-03-06T08:29:24.458Z,4.54
2023-03-06T08:31:38.428Z,4.52
2023-03-06T08:33:51.634Z,4.52
2023-03-06T08:36:04.523Z,4.53
2023-03-06T08:38:17.490Z,4.55
2023-03-06T08:40:31.666Z,4.57
2023-03-06T08:42:45.287Z,4.57
2023-03-06T08:44:58.112Z,4.59
2023-03-06T08:47:11.555Z,4.58
2023-03-06T08:49:25.516Z,4.57
2023-03-06T08:51:39.256Z,4.55
2023-03-06T08:53:52.153Z,4.53
2023-03-06T08:56:05.465Z,4.54
2023-03-06T08:58:18.475Z,4.54
2023-03-06T09:00:31.615Z,4.55
2023-03-06T09:02:45.225Z,4.57
2023-03-06T09:04:58.514Z,4.59
2023-03-06T09:07:11.554Z,4.60
2023-03-06T09:09:24.284Z,4.63
2023-03-06T09:11:40.860Z,4.66
2023-03-06T09:13:54.714Z,4.68
2023-03-06T09:16:07.690Z,4.71
2023-03-06T09:18:20.808Z,4.76
2023-03-06T09:20:34.025Z,4.81
2023-03-06T09:22:46.918Z,4.85
2023-03-06T09:25:00.377Z,4.88
2023-03-06T09:27:13.432Z,4.92
2023-03-06T09:29:26.768Z,4.94
2023-03-06T09:31:39.855Z,4.95
2023-03-06T09:33:53.444Z,4.96
2023-03-06T09:36:09.540Z,4.96
2023-03-06T09:38:22.662Z,4.98
2023-03-06T09:40:49.640Z,5.00
2023-03-06T09:43:02.649Z,5.03
2023-03-06T09:45:17.348Z,5.06
2023-03-06T09:47:52.818Z,5.08
2023-03-06T09:50:15.296Z,5.11
2023-03-06T09:52:34.278Z,5.13
2023-03-06T09:54:49.666Z,5.15
2023-03-06T09:57:02.606Z,5.17
2023-03-06T09:59:21.265Z,5.19
2023-03-06T10:01:38.001Z,5.23
2023-03-06T10:03:56.210Z,5.25
2023-03-06T10:06:16.363Z,5.28
2023-03-06T10:08:33.546Z,5.31
2023-03-06T10:10:52.534Z,5.32
2023-03-06T10:13:17.560Z,5.32
2023-03-06T10:15:34.289Z,5.30
2023-03-06T10:17:49.245Z,5.28
2023-03-06T10:20:02.472Z,5.27
2023-03-06T10:22:26.747Z,5.25
2023-03-06T10:24:57.868Z,5.23
2023-03-06T10:27:24.814Z,5.21
2023-03-06T10:30:02.667Z,5.22
2023-03-06T10:32:34.247Z,5.22
2023-03-06T10:34:53.448Z,5.21
2023-03-06T10:37:17.374Z,5.20
2023-03-06T10:39:30.311Z,5.20
2023-03-06T10:41:44.671Z,5.20
2023-03-06T10:44:24.869Z,5.20
2023-03-06T10:46:39.404Z,5.19
2023-03-06T10:49:04.553Z,5.18
2023-03-06T10:51:22.815Z,5.19
2023-03-06T10:53:36.299Z,5.21
2023-03-06T10:55:57.938Z,5.23
2023-03-06T10:58:26.408Z,5.26
2023-03-06T11:00:40.545Z,5.28
2023-03-06T11:03:07.350Z,5.28
2023-03-06T11:05:26.632Z,5.28
2023-03-06T11:07:40.248Z,5.28
2023-03-06T11:10:08.822Z,5.28
2023-03-06T11:12:33.209Z,5.25
2023-03-06T11:14:46.422Z,5.23
2023-03-06T11:16:59.464Z,5.21
2023-03-06T11:19:27.508Z,5.21
2023-03-06T11:21:42.338Z,5.20
2023-03-06T11:23:57.560Z,5.19
2023-03-06T11:26:24.596Z,5.17
2023-03-06T11:28:41.977Z,5.15
2023-03-06T11:30:59.582Z,5.13
2023-03-06T11:33:22.456Z,5.12
2023-03-06T11:35:42.634Z,5.08
2023-03-06T11:38:00.314Z,5.03
2023-03-06T11:40:24.074Z,4.99
2023-03-06T11:42:41.277Z,4.96
2023-03-06T11:45:11.362Z,4.93
2023-03-06T11:47:27.055Z,4.90
2023-03-06T11:49:47.403Z,4.88
2023-03-06T11:52:06.022Z,4.87
2023-03-06T11:54:19.162Z,4.86
2023-03-06T11:56:44.370Z,4.86
2023-03-06T11:59:37.066Z,4.85
2023-03-06T12:01:58.713Z,4.85
2023-03-06T12:04:34.353Z,4.86
2023-03-06T12:06:55.612Z,4.88
2023-03-06T12:09:27.768Z,4.88
2023-03-06T12:11:49.446Z,4.87
2023-03-06T12:14:15.337Z,4.86
2023-03-06T12:16:48.333Z,4.85
2023-03-06T12:19:16.177Z,4.85
2023-03-06T12:21:40.564Z,4.86
2023-03-06T12:24:05.298Z,4.88
2023-03-06T12:26:42.726Z,4.90
2023-03-06T12:29:10.186Z,4.92
2023-03-06T12:31:49.791Z,4.93
2023-03-06T12:34:16.656Z,4.94
2023-03-06T12:36:40.539Z,4.96
2023-03-06T12:39:21.276Z,4.97
2023-03-06T12:41:57.008Z,5.00
2023-03-06T12:44:34.860Z,5.01
2023-03-06T12:46:51.053Z,5.03
2023-03-06T12:49:15.688Z,5.07
2023-03-06T12:51:35.338Z,5.13
2023-03-06T12:53:50.498Z,5.19
2023-03-06T12:56:05.111Z,5.23
2023-03-06T12:58:50.190Z,5.24
2023-03-06T13:01:13.226Z,5.24
2023-03-06T13:03:31.506Z,5.25
2023-03-06T13:06:18.330Z,5.27
2023-03-06T13:08:56.642Z,5.29
2023-03-06T13:11:31.863Z,5.30
2023-03-06T13:13:51.552Z,5.30
2023-03-06T13:16:25.115Z,5.30
2023-03-06T13:19:04.662Z,5.29
2023-03-06T13:22:01.612Z,5.28
2023-03-06T13:24:27.704Z,5.27
2023-03-06T13:27:07.191Z,5.27
2023-03-06T13:30:03.498Z,5.29
2023-03-06T13:32:33.344Z,5.33
2023-03-06T13:34:48.189Z,5.36
2023-03-06T13:37:37.309Z,5.40
2023-03-06T13:40:19.678Z,5.42
2023-03-06T13:42:36.254Z,5.42
2023-03-06T13:44:53.777Z,5.41
2023-03-06T13:47:09.606Z,5.40
2023-03-06T13:49:28.112Z,5.38
2023-03-06T13:51:43.733Z,5.34
2023-03-06T13:54:22.098Z,5.29
2023-03-06T13:57:11.940Z,5.25
2023-03-06T14:00:06.957Z,5.21
2023-03-06T14:02:43.298Z,5.17
2023-03-06T14:05:02.513Z,5.14
2023-03-06T14:07:27.074Z,5.12
2023-03-06T14:09:45.235Z,5.09
2023-03-06T14:12:01.573Z,5.08
2023-03-06T14:14:17.224Z,5.09
2023-03-06T14:16:40.602Z,5.11
2023-03-06T14:19:02.298Z,5.14
2023-03-06T14:21:18.339Z,5.15
2023-03-06T14:23:39.432Z,5.16
2023-03-06T14:25:57.782Z,5.16
2023-03-06T14:28:28.622Z,5.16
2023-03-06T14:30:51.702Z,5.17
2023-03-06T14:33:13.815Z,5.18
2023-03-06T14:35:32.742Z,5.17
2023-03-06T14:37:46.259Z,5.17
2023-03-06T14:39:59.880Z,5.18
2023-03-06T14:42:20.315Z,5.17
2023-03-06T14:44:33.083Z,5.18
2023-03-06T14:46:46.026Z,5.20
2023-03-06T14:49:02.199Z,5.22
2023-03-06T14:51:21.005Z,5.24
2023-03-06T14:53:37.431Z,5.26
2023-03-06T14:55:54.950Z,5.27
2023-03-06T14:58:14.438Z,5.28
2023-03-06T15:00:31.722Z,5.28
2023-03-06T15:02:44.796Z,5.26
2023-03-06T15:05:01.841Z,5.24
2023-03-06T15:07:18.211Z,5.21
2023-03-06T15:09:33.652Z,5.17
2023-03-06T15:12:01.067Z,5.16
2023-03-06T15:14:24.426Z,5.13
2023-03-06T15:16:38.040Z,5.12
2023-03-06T15:19:02.244Z,5.13
2023-03-06T15:21:22.545Z,5.14
2023-03-06T15:23:44.955Z,5.17
2023-03-06T15:26:03.238Z,5.20
2023-03-06T15:28:40.835Z,5.24
2023-03-06T15:31:08.647Z,5.27
2023-03-06T15:33:29.518Z,5.32
2023-03-06T15:35:43.472Z,5.36
2023-03-06T15:37:56.876Z,5.40
2023-03-06T15:40:21.126Z,5.42
2023-03-06T15:42:37.597Z,5.44
2023-03-06T15:44:54.265Z,5.46
2023-03-06T15:47:09.159Z,5.48
2023-03-06T15:49:24.156Z,5.49
2023-03-06T15:51:38.088Z,5.50
2023-03-06T15:53:53.019Z,5.52
2023-03-06T15:56:07.928Z,5.54
2023-03-06T15:58:24.996Z,5.56
2023-03-06T16:00:40.995Z,5.58
2023-03-06T16:02:54.168Z,5.60
2023-03-06T16:05:13.962Z,5.62
2023-03-06T16:07:28.318Z,5.63
2023-03-06T16:09:41.751Z,5.64
2023-03-06T16:11:55.102Z,5.68
2023-03-06T16:14:08.196Z,5.71
2023-03-06T16:16:28.081Z,5.76
2023-03-06T16:18:40.973Z,5.80
2023-03-06T16:20:54.179Z,5.85
2023-03-06T16:23:11.660Z,5.90
2023-03-06T16:25:26.436Z,5.94
2023-03-06T16:27:39.564Z,5.96
2023-03-06T16:29:52.372Z,5.97
2023-03-06T16:32:05.701Z,5.97
2023-03-06T16:34:20.733Z,5.97
2023-03-06T16:36:33.753Z,5.98
2023-03-06T16:38:46.562Z,5.98
2023-03-06T16:40:59.923Z,5.97
2023-03-06T16:43:14.582Z,5.96
2023-03-06T16:45:28.408Z,5.91
2023-03-06T16:47:41.631Z,5.91
2023-03-06T16:49:59.081Z,5.90
2023-03-06T16:52:13.281Z,5.88
2023-03-06T16:54:27.320Z,5.87
2023-03-06T16:56:40.331Z,5.84
2023-03-06T16:58:54.147Z,5.86
2023-03-06T17:01:07.212Z,5.89
2023-03-06T17:03:20.793Z,5.94
2023-03-06T17:05:35.560Z,5.95
2023-03-06T17:07:48.727Z,5.98
2023-03-06T17:10:03.879Z,6.01
2023-03-06T17:12:18.295Z,6.07
2023-03-06T17:14:31.716Z,6.18
2023-03-06T17:16:46.779Z,6.31
2023-03-06T17:19:03.296Z,6.48
2023-03-06T17:21:18.574Z,6.60
2023-03-06T17:23:32.588Z,6.72
2023-03-06T17:25:45.815Z,6.83
2023-03-06T17:27:58.845Z,6.87
2023-03-06T17:30:15.143Z,6.87
2023-03-06T17:32:28.602Z,6.86
2023-03-06T17:34:41.591Z,6.83
2023-03-06T17:36:54.497Z,6.80
2023-03-06T17:39:08.437Z,6.79
2023-03-06T17:41:25.543Z,6.76
2023-03-06T17:43:38.769Z,6.73
2023-03-06T17:45:52.054Z,6.72
2023-03-06T17:48:05.955Z,6.69
2023-03-06T17:50:19.460Z,6.65
2023-03-06T17:52:33.288Z,6.62
2023-03-06T17:54:47.472Z,6.58
2023-03-06T17:57:03.404Z,6.53
2023-03-06T17:59:17.363Z,6.49
2023-03-06T18:01:31.576Z,6.46
2023-03-06T18:03:46.716Z,6.43
2023-03-06T18:06:10.584Z,6.42
2023-03-06T18:08:23.753Z,6.40
2023-03-06T18:10:37.649Z,6.37
2023-03-06T18:12:51.434Z,6.34
2023-03-06T18:15:05.023Z,6.32
2023-03-06T18:17:18.623Z,6.29
2023-03-06T18:19:34.515Z,6.24
2023-03-06T18:21:49.102Z,6.22
2023-03-06T18:24:03.263Z,6.24
2023-03-06T18:26:18.221Z,6.29
2023-03-06T18:28:31.903Z,6.37
2023-03-06T18:30:45.833Z,6.48
2023-03-06T18:32:58.913Z,6.59
2023-03-06T18:35:12.871Z,6.68
2023-03-06T18:37:26.133Z,6.78
2023-03-06T18:39:38.996Z,6.88
2023-03-06T18:41:52.824Z,6.96
2023-03-06T18:44:06.948Z,7.01
2023-03-06T18:46:19.866Z,7.07
2023-03-06T18:48:32.566Z,7.10
2023-03-06T18:50:45.595Z,7.14
2023-03-06T18:52:58.400Z,7.20
2023-03-06T18:55:12.806Z,7.21
2023-03-06T18:57:25.855Z,7.25
2023-03-06T18:59:38.977Z,7.27
2023-03-06T19:01:58.605Z,7.25
2023-03-06T19:04:12.197Z,7.24
2023-03-06T19:06:27.585Z,7.32
2023-03-06T19:08:41.929Z,7.44
2023-03-06T19:10:54.718Z,7.51
2023-03-06T19:13:07.806Z,7.53
2023-03-06T19:15:21.052Z,7.54
2023-03-06T19:17:34.530Z,7.53
2023-03-06T19:19:47.632Z,7.53
2023-03-06T19:22:03.567Z,7.48
2023-03-06T19:24:16.572Z,7.44
2023-03-06T19:26:29.960Z,7.37
2023-03-06T19:28:44.282Z,7.32
2023-03-06T19:30:58.140Z,7.25
2023-03-06T19:33:11.600Z,7.21
2023-03-06T19:35:25.346Z,7.15
2023-03-06T19:37:38.612Z,7.08
2023-03-06T19:39:51.466Z,7.02
2023-03-06T19:42:05.765Z,6.98
2023-03-06T19:44:19.288Z,6.91
2023-03-06T19:46:33.072Z,6.81
2023-03-06T19:48:46.104Z,6.73
2023-03-06T19:50:59.056Z,6.65
2023-03-06T19:53:12.245Z,6.57
2023-03-06T19:55:29.661Z,6.56
2023-03-06T19:57:42.780Z,6.59
2023-03-06T19:59:58.639Z,6.65
2023-03-06T20:02:13.191Z,6.71
2023-03-06T20:04:26.504Z,6.81
2023-03-06T20:06:40.584Z,6.91
2023-03-06T20:08:54.278Z,6.96
2023-03-06T20:11:08.289Z,7.00
2023-03-06T20:13:21.342Z,7.00
2023-03-06T20:15:36.311Z,7.04
2023-03-06T20:17:49.218Z,7.10
2023-03-06T20:20:02.227Z,7.19
2023-03-06T20:22:14.970Z,7.27
2023-03-06T20:24:28.170Z,7.33
2023-03-06T20:26:41.008Z,7.39
2023-03-06T20:28:53.994Z,7.45
2023-03-06T20:31:12.295Z,7.47
2023-03-06T20:33:27.614Z,7.48
2023-03-06T20:35:43.031Z,7.51
2023-03-06T20:37:56.293Z,7.61
2023-03-06T20:40:11.228Z,7.68
2023-03-06T20:42:24.373Z,7.69
2023-03-06T20:44:37.637Z,7.69
2023-03-06T20:46:50.494Z,7.66
2023-03-06T20:49:04.438Z,7.63
2023-03-06T20:51:21.917Z,7.56
2023-03-06T20:53:35.725Z,7.48
2023-03-06T20:55:50.001Z,7.42
2023-03-06T20:58:03.856Z,7.40
2023-03-06T21:00:19.002Z,7.37
2023-03-06T21:02:33.437Z,7.33
2023-03-06T21:04:46.814Z,7.34
2023-03-06T21:07:00.486Z,7.40
2023-03-06T21:09:13.876Z,7.45
2023-03-06T21:11:26.954Z,7.53
2023-03-06T21:13:40.265Z,7.64
2023-03-06T21:15:53.756Z,7.78
2023-03-06T21:18:07.178Z,7.86
2023-03-06T21:20:20.786Z,7.93
2023-03-06T21:22:34.841Z,8.01
2023-03-06T21:24:47.878Z,8.07
2023-03-06T21:27:00.661Z,8.11
2023-03-06T21:29:13.409Z,8.16
2023-03-06T21:31:28.322Z,8.20
2023-03-06T21:33:41.720Z,8.24
2023-03-06T21:35:54.938Z,8.28
2023-03-06T21:38:08.083Z,8.32
2023-03-06T21:40:25.488Z,8.33
2023-03-06T21:42:39.679Z,8.34
2023-03-06T21:44:52.954Z,8.33
2023-03-06T21:47:05.854Z,8.34
2023-03-06T21:49:19.607Z,8.36
2023-03-06T21:51:33.023Z,8.36
2023-03-06T21:53:47.544Z,8.38
2023-03-06T21:56:02.144Z,8.40
2023-03-06T21:58:14.942Z,8.40
2023-03-06T22:00:28.480Z,8.42
2023-03-06T22:02:41.081Z,8.47
2023-03-06T22:04:57.859Z,8.49
2023-03-06T22:07:11.089Z,8.52
2023-03-06T22:09:23.910Z,8.57
2023-03-06T22:11:38.267Z,8.62
2023-03-06T22:13:52.509Z,8.69
2023-03-06T22:16:05.578Z,8.75
2023-03-06T22:18:18.712Z,8.75
2023-03-06T22:20:32.029Z,8.72
2023-03-06T22:22:45.519Z,8.71
2023-03-06T22:24:58.723Z,8.69
2023-03-06T22:27:11.779Z,8.69
2023-03-06T22:29:25.188Z,8.71
2023-03-06T22:31:40.223Z,8.71
2023-03-06T22:33:56.418Z,8.65
2023-03-06T22:36:11.602Z,8.60
2023-03-06T22:38:24.822Z,8.58
2023-03-06T22:40:38.960Z,8.59
2023-03-06T22:42:52.135Z,8.56
2023-03-06T22:45:04.992Z,8.54
2023-03-06T22:47:17.889Z,8.54
2023-03-06T22:49:31.309Z,8.56
2023-03-06T22:51:45.852Z,8.63
2023-03-06T22:53:59.363Z,8.71
2023-03-06T22:56:14.771Z,8.81
2023-03-06T22:58:28.591Z,8.98
2023-03-06T23:00:42.254Z,9.15
2023-03-06T23:02:55.588Z,9.31
2023-03-06T23:05:09.374Z,9.44
2023-03-06T23:07:23.861Z,9.54
2023-03-06T23:09:46.300Z,9.63
2023-03-06T23:12:17.986Z,9.66
2023-03-06T23:14:52.386Z,9.62
2023-03-06T23:20:11.241Z,9.47
2023-03-06T23:22:42.945Z,9.40
2023-03-06T23:25:15.523Z,9.30
2023-03-06T23:27:30.711Z,9.19
2023-03-06T23:29:44.008Z,9.09
2023-03-06T23:31:57.569Z,8.96
2023-03-06T23:34:12.129Z,8.89
2023-03-06T23:36:25.790Z,8.89
2023-03-06T23:38:39.320Z,8.87
2023-03-06T23:40:52.150Z,8.85
2023-03-06T23:43:05.709Z,8.86
2023-03-06T23:45:19.362Z,8.89
2023-03-06T23:47:34.213Z,8.93
2023-03-06T23:49:47.691Z,8.96
2023-03-06T23:52:00.799Z,8.99
2023-03-06T23:54:15.233Z,8.96
2023-03-06T23:56:29.408Z,8.93
2023-03-06T23:58:42.628Z,8.89
